ZWWW/URC METAR and TAF weather

Enter ICAO airport designator
Station Type Date Time Source
ZWWW METAR 2021/04/13 22:00 UTC NOAA

ZWWW 132200Z 21002MPS CAVOK 13/M08 Q1022 NOSIG


Station Type Date Time Source
ZWWW Decoded METAR 2021/04/13 22:00 UTC NOAA

Urum-Qi / Diwopu, China (ZWWW) 43-54N 087-28E
Apr 13, 2021 - 06:00 PM EDT / 2021.04.13 2200 UTC
Wind: from the SSW (210 degrees) at 4 MPH (4 KT):0
Visibility: greater than 7 mile(s):0
Temperature: 55 F (13 C)
Dew Point: 17 F (-8 C)
Relative Humidity: 22%
Pressure (altimeter): 30.18 in. Hg (1022 hPa)
ob: ZWWW 132200Z 21002MPS CAVOK 13/M08 Q1022 NOSIG
cycle: 22

Station Type Date Time Source
ZWWW TAF 2021/04/13 18:03 UTC NOAA

TAF ZWWW 131501Z 1318/1418 18004MPS CAVOK TX17/1409Z TN09/1323Z
BECMG 1402/1403 36004MPS
BECMG 1414/1415 18004MPS

Example: see airport list